Westminster, Texas
Current Conditions -  °F | °C
As of 11:53 PM on Thursday 18 Dec 2014 (Local Time) from KTKI Reporting Station
Overcast Overcast  
Wind Chill: 41°   Ceiling: 700
Heat Index: 45°   Visibility: 7mi
Dew Point: 43°   Wind: 7mph
Humidity: 93%   Direction: 30°NNE
Pressure: 30.17"   Gusts: NA
Location:  33.36°N, 96.46°W
Report Text: KTKI 190553Z AUTO 03006KT 7SM OVC007 07/06 A3017 RMK AO2 SLP228 T00720061 10078 20072 400830039 58004
Loading
Personal Weather Stations






























Interactive Weather Map New forecast layout! Learn more

10-Day Weather Forecast

Advertisements
Track Severe Weather on mobile